createdAt,value
2022-08-28T00:03:11.421Z,8.20
2022-08-28T00:08:04.329Z,8.90
2022-08-28T00:12:44.574Z,10.50
2022-08-28T00:17:59.398Z,8.90
2022-08-28T00:22:58.730Z,9.40
2022-08-28T00:28:08.776Z,8.00
2022-08-28T00:33:16.079Z,8.00
2022-08-28T00:38:24.347Z,7.60
2022-08-28T00:43:02.797Z,8.50
2022-08-28T00:48:12.778Z,9.40
2022-08-28T00:54:17.088Z,9.20
2022-08-28T00:58:50.752Z,8.40
2022-08-28T01:04:12.044Z,8.20
2022-08-28T01:09:27.727Z,7.10
2022-08-28T01:19:06.114Z,9.50
2022-08-28T01:23:37.828Z,7.90
2022-08-28T01:29:07.176Z,8.30
2022-08-28T01:33:49.714Z,9.00
2022-08-28T01:38:57.162Z,8.60
2022-08-28T01:44:33.519Z,8.10
2022-08-28T01:49:05.719Z,8.00
2022-08-28T01:54:14.597Z,8.40
2022-08-28T01:59:01.768Z,7.10
2022-08-28T02:09:34.430Z,8.30
2022-08-28T02:19:09.016Z,8.00
2022-08-28T02:23:47.706Z,7.30
2022-08-28T02:28:28.774Z,8.20
2022-08-28T02:38:46.285Z,7.10
2022-08-28T02:44:08.089Z,7.20
2022-08-28T02:49:02.798Z,8.00
2022-08-28T02:54:07.204Z,7.30
2022-08-28T02:59:08.466Z,7.10
2022-08-28T03:04:52.007Z,7.80
2022-08-28T03:20:50.469Z,7.00
2022-08-28T03:26:17.900Z,7.20
2022-08-28T03:31:16.902Z,7.20
2022-08-28T03:41:27.879Z,6.80
2022-08-28T03:51:17.602Z,7.70
2022-08-28T04:07:02.805Z,5.90
2022-08-28T04:12:17.885Z,7.70
2022-08-28T04:22:17.476Z,7.20
2022-08-28T04:27:21.742Z,8.40
2022-08-28T04:37:10.989Z,7.60
2022-08-28T04:42:09.086Z,7.80
2022-08-28T04:47:00.949Z,8.10
2022-08-28T04:51:47.003Z,8.00
2022-08-28T04:55:54.744Z,8.00
2022-08-28T05:00:40.021Z,7.60
2022-08-28T05:05:02.156Z,7.50
2022-08-28T05:09:27.194Z,6.60
2022-08-28T05:13:48.240Z,6.40
2022-08-28T05:17:51.631Z,9.80
2022-08-28T05:22:10.574Z,7.30
2022-08-28T05:26:14.327Z,6.50
2022-08-28T05:30:17.836Z,6.90
2022-08-28T05:34:24.766Z,8.20
2022-08-28T05:38:33.409Z,7.30
2022-08-28T05:43:12.421Z,7.30
2022-08-28T05:47:21.504Z,6.30
2022-08-28T05:51:50.534Z,7.20
2022-08-28T05:56:38.040Z,7.40
2022-08-28T06:00:52.730Z,6.50
2022-08-28T06:05:08.097Z,6.70
2022-08-28T06:09:42.327Z,6.40
2022-08-28T06:13:53.136Z,6.30
2022-08-28T06:18:35.465Z,6.20
2022-08-28T06:22:37.906Z,6.40
2022-08-28T06:27:21.166Z,7.00
2022-08-28T06:31:27.183Z,6.40
2022-08-28T06:35:35.377Z,6.40
2022-08-28T06:39:38.615Z,5.70
2022-08-28T06:43:43.749Z,7.40
2022-08-28T06:47:52.530Z,7.30
2022-08-28T06:51:57.946Z,7.40
2022-08-28T06:56:08.270Z,7.10
2022-08-28T07:00:18.866Z,7.10
2022-08-28T07:04:48.054Z,6.40
2022-08-28T07:08:58.003Z,7.30
2022-08-28T07:13:49.958Z,6.20
2022-08-28T07:18:26.073Z,7.10
2022-08-28T07:22:41.644Z,6.50
2022-08-28T07:27:18.285Z,6.20
2022-08-28T07:32:06.832Z,5.50
2022-08-28T07:36:51.557Z,5.90
2022-08-28T07:40:58.785Z,6.10
2022-08-28T07:45:02.512Z,6.50
2022-08-28T07:49:21.159Z,5.50
2022-08-28T07:53:28.783Z,7.30
2022-08-28T07:58:09.162Z,6.00
2022-08-28T08:02:23.270Z,5.50
2022-08-28T08:06:33.134Z,5.80
2022-08-28T08:10:55.693Z,5.90
2022-08-28T08:14:59.698Z,6.60
2022-08-28T08:19:03.771Z,6.20
2022-08-28T08:23:06.035Z,5.30
2022-08-28T08:27:10.913Z,5.40
2022-08-28T08:31:15.425Z,6.00
2022-08-28T08:35:17.645Z,6.30
2022-08-28T08:39:20.232Z,6.50
2022-08-28T08:43:24.235Z,6.40
2022-08-28T08:47:41.374Z,4.70
2022-08-28T08:52:13.430Z,5.10
2022-08-28T08:56:24.864Z,5.40
2022-08-28T09:00:56.283Z,5.10
2022-08-28T09:05:06.542Z,5.90
2022-08-28T09:09:26.489Z,5.60
2022-08-28T09:13:50.309Z,5.50
2022-08-28T09:18:07.141Z,5.80
2022-08-28T09:22:09.532Z,4.90
2022-08-28T09:26:22.561Z,5.50
2022-08-28T09:30:31.467Z,5.40
2022-08-28T09:34:38.659Z,5.20
2022-08-28T09:38:41.384Z,5.70
2022-08-28T09:43:23.109Z,4.80
2022-08-28T09:47:48.690Z,4.80
2022-08-28T09:51:51.186Z,4.50
2022-08-28T09:56:02.149Z,5.00
2022-08-28T10:00:04.896Z,5.00
2022-08-28T10:04:32.483Z,4.80
2022-08-28T10:08:54.607Z,4.80
2022-08-28T10:13:02.934Z,5.70
2022-08-28T10:17:14.257Z,5.50
2022-08-28T10:21:50.481Z,4.40
2022-08-28T10:26:20.747Z,4.80
2022-08-28T10:30:30.164Z,4.30
2022-08-28T10:34:40.158Z,5.10
2022-08-28T10:38:53.181Z,4.10
2022-08-28T10:43:01.829Z,4.50
2022-08-28T10:47:06.250Z,5.50
2022-08-28T10:51:34.896Z,4.60
2022-08-28T10:56:02.409Z,5.00
2022-08-28T11:00:12.117Z,5.00
2022-08-28T11:04:25.382Z,4.60
2022-08-28T11:08:33.667Z,5.20
2022-08-28T11:12:42.263Z,5.40
2022-08-28T11:16:46.956Z,4.70
2022-08-28T11:21:34.459Z,4.10
2022-08-28T11:25:59.412Z,4.60
2022-08-28T11:30:14.828Z,4.70
2022-08-28T11:35:14.253Z,4.50
2022-08-28T11:39:16.175Z,5.10
2022-08-28T11:43:20.362Z,5.00
2022-08-28T11:47:56.414Z,5.00
2022-08-28T11:52:22.753Z,4.00
2022-08-28T11:56:44.680Z,4.70
2022-08-28T12:01:00.220Z,4.80
2022-08-28T12:05:33.147Z,4.70
2022-08-28T12:09:45.137Z,4.00
2022-08-28T12:13:50.972Z,5.10
2022-08-28T12:18:14.092Z,5.00
2022-08-28T12:22:19.452Z,4.20
2022-08-28T12:26:26.348Z,5.10
2022-08-28T12:30:36.697Z,5.30
2022-08-28T12:34:49.710Z,4.20
2022-08-28T12:38:54.576Z,4.00
2022-08-28T12:43:04.914Z,4.80
2022-08-28T12:47:07.261Z,4.90
2022-08-28T12:51:14.461Z,5.00
2022-08-28T12:55:21.344Z,4.40
2022-08-28T12:59:37.390Z,5.10
2022-08-28T13:03:47.592Z,5.00
2022-08-28T13:07:54.191Z,5.00
2022-08-28T13:11:56.992Z,5.00
2022-08-28T13:16:06.124Z,5.40
2022-08-28T13:20:08.678Z,4.90
2022-08-28T13:24:27.014Z,5.20
2022-08-28T13:28:29.272Z,4.50
2022-08-28T13:32:38.737Z,5.10
2022-08-28T13:36:57.622Z,4.90
2022-08-28T13:41:03.873Z,4.50
2022-08-28T13:45:07.448Z,6.20
2022-08-28T13:49:09.488Z,4.70
2022-08-28T13:53:11.843Z,5.20
2022-08-28T13:57:14.910Z,4.40
2022-08-28T14:01:22.492Z,5.10
2022-08-28T14:05:32.837Z,5.30
2022-08-28T14:09:35.877Z,4.40
2022-08-28T14:13:38.580Z,5.00
2022-08-28T14:17:40.751Z,5.40
2022-08-28T14:21:43.115Z,5.10
2022-08-28T14:25:47.351Z,5.00
2022-08-28T14:29:49.680Z,5.00
2022-08-28T14:33:51.852Z,5.30
2022-08-28T14:37:54.446Z,5.50
2022-08-28T14:41:57.486Z,5.70
2022-08-28T14:46:00.144Z,6.10
2022-08-28T14:50:02.586Z,5.80
2022-08-28T14:54:06.219Z,5.10
2022-08-28T14:58:08.410Z,5.40
2022-08-28T15:02:13.176Z,5.80
2022-08-28T15:06:15.660Z,5.20
2022-08-28T15:10:18.506Z,7.10
2022-08-28T15:14:20.786Z,6.00
2022-08-28T15:18:23.049Z,6.70
2022-08-28T15:22:29.705Z,6.30
2022-08-28T15:26:32.710Z,5.60
2022-08-28T15:30:35.259Z,6.60
2022-08-28T15:34:38.367Z,6.20
2022-08-28T15:38:59.051Z,6.00
2022-08-28T15:43:01.301Z,8.10
2022-08-28T15:47:04.613Z,10.60
2022-08-28T15:51:07.666Z,12.30
2022-08-28T15:55:10.662Z,8.90
2022-08-28T15:59:13.444Z,5.60
2022-08-28T16:03:15.774Z,6.00
2022-08-28T16:07:20.871Z,6.30
2022-08-28T16:11:23.361Z,6.00
2022-08-28T16:15:26.492Z,5.30
2022-08-28T16:19:30.436Z,6.50
2022-08-28T16:23:33.134Z,5.90
2022-08-28T16:27:35.637Z,5.10
2022-08-28T16:31:38.478Z,4.40
2022-08-28T16:35:49.405Z,5.30
2022-08-28T16:39:58.369Z,5.50
2022-08-28T16:44:00.983Z,5.60
2022-08-28T16:48:05.267Z,5.40
2022-08-28T16:52:07.520Z,5.40
2022-08-28T16:56:12.088Z,4.70
2022-08-28T17:00:16.086Z,5.30
2022-08-28T17:04:18.472Z,5.50
2022-08-28T17:08:57.105Z,5.10
2022-08-28T17:13:04.573Z,3.80
2022-08-28T17:17:07.237Z,5.10
2022-08-28T17:21:29.785Z,5.20
2022-08-28T17:25:33.031Z,4.80
2022-08-28T17:29:38.058Z,4.70
2022-08-28T17:33:46.630Z,4.30
2022-08-28T17:37:51.368Z,4.70
2022-08-28T17:41:54.255Z,4.80
2022-08-28T17:45:56.465Z,5.70
2022-08-28T17:50:01.139Z,5.30
2022-08-28T17:54:04.050Z,5.70
2022-08-28T17:58:06.520Z,5.50
2022-08-28T18:02:09.367Z,4.60
2022-08-28T18:06:12.819Z,5.00
2022-08-28T18:10:16.415Z,5.30
2022-08-28T18:14:18.818Z,4.90
2022-08-28T18:18:26.978Z,4.60
2022-08-28T18:22:39.145Z,4.40
2022-08-28T18:26:44.301Z,5.20
2022-08-28T18:30:50.160Z,5.60
2022-08-28T18:35:01.040Z,5.10
2022-08-28T18:39:03.493Z,4.80
2022-08-28T18:43:05.970Z,5.00
2022-08-28T18:47:08.927Z,7.30
2022-08-28T18:51:12.013Z,12.50
2022-08-28T18:55:14.284Z,8.50
2022-08-28T18:59:16.487Z,8.90
2022-08-28T19:03:19.217Z,7.70
2022-08-28T19:07:21.631Z,4.60
2022-08-28T19:11:27.040Z,4.70
2022-08-28T19:15:30.954Z,3.80
2022-08-28T19:19:33.333Z,4.40
2022-08-28T19:23:38.042Z,4.90
2022-08-28T19:27:40.881Z,4.10
2022-08-28T19:31:44.233Z,4.40
2022-08-28T19:35:46.870Z,4.20
2022-08-28T19:39:56.421Z,4.30
2022-08-28T19:43:59.556Z,3.50
2022-08-28T19:48:02.633Z,4.10
2022-08-28T19:52:06.648Z,4.60
2022-08-28T19:56:09.341Z,4.20
2022-08-28T20:00:13.452Z,4.00
2022-08-28T20:04:17.385Z,3.90
2022-08-28T20:08:19.550Z,4.80
2022-08-28T20:12:21.602Z,4.10
2022-08-28T20:16:25.018Z,4.40
2022-08-28T20:20:29.995Z,5.00
2022-08-28T20:24:32.496Z,6.20
2022-08-28T20:28:36.193Z,5.40
2022-08-28T20:32:40.711Z,6.70
2022-08-28T20:36:44.861Z,5.30
2022-08-28T20:40:47.074Z,4.90
2022-08-28T20:44:49.218Z,3.90
2022-08-28T20:48:51.253Z,4.30
2022-08-28T20:52:53.384Z,4.40
2022-08-28T20:56:57.458Z,4.70
2022-08-28T21:00:59.968Z,5.50
2022-08-28T21:05:02.209Z,5.40
2022-08-28T21:09:04.413Z,5.30
2022-08-28T21:13:07.289Z,4.90
2022-08-28T21:17:09.885Z,4.20
2022-08-28T21:21:12.670Z,4.10
2022-08-28T21:25:18.107Z,5.20
2022-08-28T21:29:22.054Z,4.40
2022-08-28T21:33:24.922Z,4.40
2022-08-28T21:37:27.401Z,4.00
2022-08-28T21:41:29.490Z,4.10
2022-08-28T21:45:33.784Z,4.80
2022-08-28T21:49:37.568Z,4.00
2022-08-28T21:53:42.482Z,4.70
2022-08-28T21:57:45.703Z,3.90
2022-08-28T22:01:48.828Z,4.40
2022-08-28T22:05:53.300Z,4.20
2022-08-28T22:09:57.641Z,4.00
2022-08-28T22:14:01.352Z,4.50
2022-08-28T22:18:04.036Z,4.70
2022-08-28T22:22:25.100Z,4.10
2022-08-28T22:26:27.706Z,4.50
2022-08-28T22:30:29.807Z,4.70
2022-08-28T22:34:43.333Z,4.60
2022-08-28T22:38:53.031Z,3.70
2022-08-28T22:42:55.654Z,3.70
2022-08-28T22:46:57.944Z,4.00
2022-08-28T22:51:12.201Z,3.80
2022-08-28T22:55:15.904Z,5.30
2022-08-28T22:59:18.824Z,4.40
2022-08-28T23:03:21.126Z,3.30
2022-08-28T23:07:23.244Z,4.60
2022-08-28T23:11:25.407Z,3.80
2022-08-28T23:15:27.568Z,4.00
2022-08-28T23:19:30.308Z,3.80
2022-08-28T23:23:32.593Z,4.20
2022-08-28T23:27:36.836Z,3.30
2022-08-28T23:31:39.444Z,5.00
2022-08-28T23:35:41.568Z,4.10
2022-08-28T23:39:43.784Z,4.10
2022-08-28T23:43:45.811Z,3.90
2022-08-28T23:47:49.212Z,4.90
2022-08-28T23:51:51.817Z,4.10
2022-08-28T23:55:54.852Z,4.10
2022-08-28T23:59:58.258Z,3.80
